»·PEaware :: N184CF KBFL-KMHV

N184CF :: KBFL-KMHV

FLIGHT INFORMATION

Flight Status: Arrived
Operator: Privately registered:
United States
More flights under this callsign
Pilot: Arik P. (45269)
Aircraft: Unknown
(P28)
More flights by this aircraft type
Origin: KBFL Meadows
United States
Destination: KMHV Mojave
United States
More flights between these airports :: More routes between these airports
Route:
File this flight plan on PilotEdge
Remarks:
Altitude:
(Current/Filed)
9,500ft
Speed:
(Current/Filed)
100kts
Departed: 01-Nov-23 02:12 PM
Arrived: 01-Nov-23 02:53 PM
Distance/Time
Traveled:
50nm/0:41
Distance/Time
To Go:
Arrived

Flight Plot

Page will automatically refresh every two minutes.


Map Options




Map Legend


Flown Route
Filed Route
Departure Airport
Arrival Airport
Navaid (VOR, NDB)
Fix

Horizontal Profiles

Position Reports

Time Latitude Longitude Heading Altitude Ground
Speed
01-Nov-23 13:54 35.428358 -119.045097 80 480ft 0kts
01-Nov-23 13:55 35.428358 -119.045097 80 480ft 0kts
01-Nov-23 13:56 35.428358 -119.045097 80 480ft 0kts
01-Nov-23 13:57 35.428358 -119.045097 80 480ft 0kts
01-Nov-23 13:58 35.428358 -119.045097 80 480ft 0kts
01-Nov-23 13:59 35.428358 -119.045097 80 480ft 0kts
01-Nov-23 14:00 35.428358 -119.045097 80 480ft 0kts
01-Nov-23 14:01 35.428358 -119.045097 80 480ft 0kts
01-Nov-23 14:02 35.428348 -119.044946 108 477ft 2kts
01-Nov-23 14:03 35.425740 -119.044169 157 471ft 14kts
01-Nov-23 14:04 35.425452 -119.043737 172 471ft 5kts
01-Nov-23 14:05 35.425221 -119.044119 290 471ft 0kts
01-Nov-23 14:06 35.425220 -119.044119 290 471ft 0kts
01-Nov-23 14:07 35.425457 -119.044521 277 471ft 5kts
01-Nov-23 14:08 35.425444 -119.044673 260 472ft 0kts
01-Nov-23 14:09 35.425444 -119.044673 260 472ft 0kts
01-Nov-23 14:10 35.425444 -119.044673 260 472ft 0kts
01-Nov-23 14:11 35.427908 -119.049066 315 489ft 66kts
01-Nov-23 14:12 35.442457 -119.066367 314 1533ft 72kts
01-Nov-23 14:13 35.457149 -119.082366 337 2530ft 75kts
01-Nov-23 14:14 35.451402 -119.066080 176 3425ft 79kts
01-Nov-23 14:15 35.437410 -119.048089 112 4342ft 83kts
01-Nov-23 14:16 35.438749 -119.021816 48 5180ft 82kts
01-Nov-23 14:17 35.445449 -118.996638 68 6025ft 83kts
01-Nov-23 14:18 35.450672 -118.971484 86 6797ft 72kts
01-Nov-23 14:19 35.456211 -118.944828 74 7346ft 88kts
01-Nov-23 14:20 35.461211 -118.916058 77 8083ft 85kts
01-Nov-23 14:21 35.466596 -118.886983 75 8762ft 85kts
01-Nov-23 14:22 35.471326 -118.858133 79 9409ft 85kts
01-Nov-23 14:23 35.474901 -118.822719 122 9733ft 104kts
01-Nov-23 14:24 35.452954 -118.789168 129 9540ft 128kts
01-Nov-23 14:25 35.426260 -118.763424 157 9473ft 126kts
01-Nov-23 14:26 35.397629 -118.737961 141 9511ft 121kts
01-Nov-23 14:27 35.369113 -118.711213 145 9397ft 131kts
01-Nov-23 14:28 35.341238 -118.684293 113 9472ft 125kts
01-Nov-23 14:29 35.316706 -118.655918 140 9475ft 129kts
01-Nov-23 14:30 35.289416 -118.627060 140 9459ft 129kts
01-Nov-23 14:31 35.263073 -118.596989 131 9454ft 129kts
01-Nov-23 14:32 35.238747 -118.564199 133 9416ft 130kts
01-Nov-23 14:33 35.214159 -118.531368 133 9413ft 130kts
01-Nov-23 14:34 35.189729 -118.498677 133 9183ft 128kts
01-Nov-23 14:35 35.166550 -118.465520 130 8399ft 120kts
01-Nov-23 14:36 35.146081 -118.433140 127 7983ft 122kts
01-Nov-23 14:37 35.126987 -118.398724 112 7295ft 106kts
01-Nov-23 14:38 35.129326 -118.365675 12 7509ft 94kts
01-Nov-23 14:39 35.122667 -118.368676 128 7457ft 119kts
01-Nov-23 14:40 35.103615 -118.339429 121 7693ft 108kts
01-Nov-23 14:41 35.104722 -118.301976 77 7522ft 120kts
01-Nov-23 14:42 35.109906 -118.261250 82 6540ft 122kts
01-Nov-23 14:43 35.114580 -118.221308 87 5462ft 117kts
01-Nov-23 14:44 35.102969 -118.187172 130 4570ft 110kts
01-Nov-23 14:45 35.083381 -118.158325 132 3749ft 102kts
01-Nov-23 14:46 35.065756 -118.136414 146 3511ft 81kts
01-Nov-23 14:47 35.048746 -118.117983 139 3464ft 84kts
01-Nov-23 14:48 35.031460 -118.113803 241 3323ft 65kts
01-Nov-23 14:52 35.057666 -118.148040 240 2749ft 0kts

Navigation Log

Ident Type
Flight plan parsing failed, navigation log unavailable